Time;durP1;ratioP1;P1;durP2;ratioP2;P2;SDS_P1;SDS_P2;PMS_P1;PMS_P2;Temp;Humidity;BMP_temperature;BMP_pressure;BME280_temperature;BME280_humidity;BME280_pressure;Samples;Min_cycle;Max_cycle;Signal;HPM_P1;HPM_P2
2023/10/20 00:02:14;;;;;;;16.90;15.40;;;15.30;44.10;;;;;;10390262;28;20234;-77
2023/10/20 00:07:17;;;;;;;15.77;14.27;;;15.30;44.60;;;;;;10386948;28;20230;-77
2023/10/20 00:12:20;;;;;;;16.60;15.20;;;15.30;44.10;;;;;;10388188;28;20233;-77
2023/10/20 00:17:25;;;;;;;15.00;13.60;;;15.30;44.00;;;;;;10378922;28;20229;-77
2023/10/20 00:22:28;;;;;;;13.57;12.47;;;15.20;44.40;;;;;;10380147;28;20236;-77
2023/10/20 00:27:31;;;;;;;16.23;14.83;;;15.20;44.20;;;;;;10379934;28;20756;-77
2023/10/20 00:32:39;;;;;;;16.03;14.57;;;15.20;44.50;;;;;;10389487;28;20316;-77
2023/10/20 00:37:43;;;;;;;17.00;15.40;;;15.20;44.50;;;;;;10376443;28;20257;-76
2023/10/20 00:42:46;;;;;;;15.40;14.07;;;15.20;44.50;;;;;;10381414;28;20222;-77
2023/10/20 00:47:51;;;;;;;15.63;14.23;;;15.20;44.50;;;;;;10380368;28;20232;-75
2023/10/20 00:52:54;;;;;;;15.30;13.90;;;15.20;44.50;;;;;;10394807;28;20260;-74
2023/10/20 00:57:58;;;;;;;15.33;14.10;;;15.20;44.50;;;;;;10396422;28;20233;-74
2023/10/20 01:03:04;;;;;;;16.30;14.90;;;15.20;44.50;;;;;;10394226;28;20233;-74
2023/10/20 01:08:08;;;;;;;16.30;14.90;;;15.20;44.50;;;;;;10394433;28;20775;-74
2023/10/20 01:13:11;;;;;;;13.07;11.97;;;15.20;44.50;;;;;;10395311;28;20244;-74
2023/10/20 01:18:17;;;;;;;15.93;14.47;;;15.10;44.40;;;;;;10398036;28;20233;-74
2023/10/20 01:23:20;;;;;;;13.70;12.43;;;15.10;44.40;;;;;;10393760;28;20241;-74
2023/10/20 01:28:24;;;;;;;16.30;14.80;;;15.10;44.40;;;;;;10390703;28;20287;-74
2023/10/20 01:33:28;;;;;;;16.33;14.93;;;15.10;44.40;;;;;;10390602;28;20229;-75
2023/10/20 01:38:31;;;;;;;16.27;14.87;;;15.10;44.40;;;;;;10387607;28;20229;-74
2023/10/20 01:43:36;;;;;;;16.30;14.70;;;15.10;44.40;;;;;;10390959;28;20242;-74
2023/10/20 01:48:39;;;;;;;16.63;15.17;;;15.00;44.40;;;;;;10396755;28;20792;-74
2023/10/20 01:53:42;;;;;;;16.67;15.27;;;15.00;44.30;;;;;;10394388;28;20225;-74
2023/10/20 01:58:47;;;;;;;17.67;16.10;;;15.00;44.30;;;;;;10391151;28;20264;-74
2023/10/20 02:03:51;;;;;;;14.87;13.57;;;15.00;44.30;;;;;;10393869;28;20236;-74
2023/10/20 02:08:54;;;;;;;17.90;15.80;;;15.00;44.30;;;;;;10392533;28;20236;-74
2023/10/20 02:13:59;;;;;;;17.30;15.80;;;15.00;44.30;;;;;;10392828;28;20863;-74
2023/10/20 02:19:04;;;;;;;17.53;15.93;;;15.00;44.30;;;;;;10393627;28;20317;-74
2023/10/20 02:24:08;;;;;;;16.13;14.73;;;15.00;44.30;;;;;;10392398;28;20233;-74
2023/10/20 02:29:13;;;;;;;16.90;15.50;;;15.00;44.30;;;;;;10389090;28;20226;-74
2023/10/20 02:34:16;;;;;;;17.37;15.80;;;15.00;44.30;;;;;;10391853;28;20229;-74
2023/10/20 02:39:20;;;;;;;17.47;15.97;;;15.00;44.30;;;;;;10390088;28;20233;-74
2023/10/20 02:44:27;;;;;;;17.00;15.50;;;15.00;44.30;;;;;;10388317;28;20316;-74
2023/10/20 02:49:30;;;;;;;18.07;16.47;;;15.00;44.30;;;;;;10393370;28;20279;-74
2023/10/20 02:54:34;;;;;;;18.77;17.10;;;15.00;44.30;;;;;;10388488;28;20228;-74
2023/10/20 02:59:38;;;;;;;16.83;15.13;;;15.00;44.30;;;;;;10388104;28;20229;-74
2023/10/20 03:04:42;;;;;;;18.47;16.70;;;15.00;44.30;;;;;;10389084;28;20312;-74
2023/10/20 03:09:45;;;;;;;17.90;16.20;;;14.90;44.30;;;;;;10390632;28;20256;-74
2023/10/20 03:14:50;;;;;;;18.80;17.13;;;14.90;44.30;;;;;;10393660;28;20214;-74
2023/10/20 03:19:53;;;;;;;19.80;17.90;;;14.90;44.30;;;;;;10389035;28;20244;-74
2023/10/20 03:24:58;;;;;;;18.43;16.83;;;14.90;44.30;;;;;;10391676;28;20252;-74
2023/10/20 03:30:03;;;;;;;18.93;17.23;;;14.90;44.30;;;;;;10390352;28;20238;-74
2023/10/20 03:35:08;;;;;;;21.07;18.93;;;14.90;44.70;;;;;;10390495;28;20304;-73
2023/10/20 03:40:14;;;;;;;19.53;17.63;;;14.90;44.30;;;;;;10390219;28;20739;-73
2023/10/20 03:45:21;;;;;;;20.10;18.40;;;14.90;44.30;;;;;;10384934;28;20234;-74
2023/10/20 03:50:24;;;;;;;21.97;20.07;;;14.90;44.70;;;;;;10388006;28;20477;-73
2023/10/20 03:55:29;;;;;;;20.97;18.97;;;14.90;44.60;;;;;;10393963;28;20233;-77
2023/10/20 04:00:37;;;;;;;22.17;20.17;;;14.90;44.60;;;;;;10387374;28;20229;-74
2023/10/20 04:05:40;;;;;;;21.20;19.20;;;14.90;45.00;;;;;;10389680;28;20291;-73
2023/10/20 04:10:43;;;;;;;20.27;18.50;;;15.00;44.60;;;;;;10386269;28;20729;-74
2023/10/20 04:15:48;;;;;;;20.30;18.37;;;15.00;44.70;;;;;;10392795;28;20653;-73
2023/10/20 04:20:51;;;;;;;23.60;21.30;;;15.00;44.90;;;;;;10387039;28;20628;-72
2023/10/20 04:25:55;;;;;;;24.63;22.37;;;14.90;44.70;;;;;;10389069;28;20823;-75
2023/10/20 04:42:01;;;;;;;21.80;19.90;;;15.00;45.00;;;;;;10394378;28;20235;-75
2023/10/20 04:58:04;;;;;;;24.23;22.00;;;15.00;44.90;;;;;;10373813;28;20646;-76
2023/10/20 05:03:29;;;;;;;26.03;23.53;;;14.90;44.90;;;;;;10397991;28;20222;-76
2023/10/20 05:08:33;;;;;;;24.20;21.97;;;14.90;45.20;;;;;;10393683;28;20226;-76
2023/10/20 05:13:36;;;;;;;24.90;22.53;;;14.90;45.10;;;;;;10393866;28;20253;-76
2023/10/20 05:18:41;;;;;;;25.47;23.17;;;14.90;45.20;;;;;;10397392;28;20611;-79
2023/10/20 05:23:46;;;;;;;25.17;22.90;;;14.90;45.50;;;;;;10395298;28;20222;-77
2023/10/20 05:28:50;;;;;;;25.57;23.17;;;14.90;45.40;;;;;;10389910;28;20256;-77
2023/10/20 05:33:54;;;;;;;25.53;23.13;;;14.90;45.30;;;;;;10390723;28;20280;-76
2023/10/20 05:38:58;;;;;;;26.20;23.80;;;14.90;45.80;;;;;;10394926;28;20272;-76
2023/10/20 05:44:01;;;;;;;24.07;21.87;;;14.90;45.50;;;;;;10397793;28;20842;-76
2023/10/20 05:49:08;;;;;;;25.03;22.73;;;14.90;45.60;;;;;;10394012;28;20247;-76
2023/10/20 05:54:11;;;;;;;25.43;23.13;;;14.90;45.90;;;;;;10394609;28;20226;-76
2023/10/20 05:59:14;;;;;;;25.43;23.03;;;14.90;45.60;;;;;;10391693;28;20708;-76
2023/10/20 06:04:20;;;;;;;24.63;22.33;;;15.00;45.60;;;;;;10394041;28;20274;-75
2023/10/20 06:09:25;;;;;;;24.93;22.63;;;15.00;45.90;;;;;;10390370;28;20233;-73
2023/10/20 06:14:28;;;;;;;25.93;23.27;;;15.00;45.70;;;;;;10389030;28;20357;-74
2023/10/20 06:19:33;;;;;;;25.77;23.17;;;15.00;45.70;;;;;;10390282;28;20728;-74
2023/10/20 06:24:36;;;;;;;25.10;22.70;;;15.00;45.90;;;;;;10396001;28;20234;-81
2023/10/20 06:29:46;;;;;;;24.40;22.10;;;15.10;45.80;;;;;;10390075;28;20291;-77
2023/10/20 06:34:53;;;;;;;26.20;23.70;;;15.10;45.80;;;;;;10390839;28;20232;-77
2023/10/20 06:39:57;;;;;;;25.93;23.50;;;15.10;46.30;;;;;;10390855;28;20234;-77
2023/10/20 06:45:01;;;;;;;25.63;23.27;;;15.10;45.90;;;;;;10390485;28;20235;-76
2023/10/20 06:50:07;;;;;;;25.77;23.47;;;15.20;45.90;;;;;;10394290;28;20230;-76
2023/10/20 06:55:10;;;;;;;26.30;23.80;;;15.20;46.20;;;;;;10390445;28;20302;-75
2023/10/20 07:00:17;;;;;;;23.70;21.60;;;15.20;45.90;;;;;;10393592;28;20225;-74
2023/10/20 07:05:23;;;;;;;24.97;22.67;;;15.20;45.90;;;;;;10388637;28;20287;-75
2023/10/20 07:10:28;;;;;;;26.07;23.60;;;15.20;46.00;;;;;;10395156;28;20864;-75
2023/10/20 07:15:33;;;;;;;25.00;22.80;;;15.20;45.80;;;;;;10390502;28;20758;-75
2023/10/20 07:20:38;;;;;;;23.47;21.33;;;15.20;45.80;;;;;;10392248;28;20615;-75
2023/10/20 07:25:42;;;;;;;24.03;21.60;;;15.20;46.10;;;;;;10394625;28;20311;-75
2023/10/20 07:30:45;;;;;;;27.03;24.63;;;15.20;45.90;;;;;;10392373;28;20224;-75
2023/10/20 07:35:50;;;;;;;24.53;21.97;;;15.30;46.20;;;;;;10391429;28;20263;-76
2023/10/20 07:40:53;;;;;;;23.60;21.50;;;15.30;46.50;;;;;;10388540;28;20740;-76
2023/10/20 07:45:57;;;;;;;23.40;21.40;;;15.30;46.30;;;;;;10390680;28;20309;-76
2023/10/20 07:51:02;;;;;;;23.73;21.53;;;15.30;46.40;;;;;;10387064;28;20736;-77
2023/10/20 07:56:05;;;;;;;23.70;21.50;;;15.40;46.70;;;;;;10388917;28;20240;-74
2023/10/20 08:01:08;;;;;;;23.23;21.03;;;15.40;46.40;;;;;;10395111;28;20618;-74
2023/10/20 08:06:13;;;;;;;21.03;19.00;;;15.40;46.50;;;;;;10398605;28;20299;-74
2023/10/20 08:11:17;;;;;;;21.13;19.20;;;15.50;46.80;;;;;;10391375;28;20239;-74
2023/10/20 08:16:21;;;;;;;21.87;19.67;;;15.60;46.70;;;;;;10396911;28;20230;-76
2023/10/20 08:21:29;;;;;;;21.13;19.33;;;15.60;46.70;;;;;;10393609;28;20237;-77
2023/10/20 08:26:33;;;;;;;22.03;19.93;;;15.70;47.00;;;;;;10393237;28;20296;-76
2023/10/20 08:31:36;;;;;;;22.63;20.50;;;15.70;46.90;;;;;;10393120;28;20292;-77
2023/10/20 08:36:41;;;;;;;21.47;19.37;;;15.80;47.20;;;;;;10392143;28;20221;-73
2023/10/20 08:41:45;;;;;;;20.13;18.37;;;15.90;47.50;;;;;;10380742;28;20842;-73
2023/10/20 08:46:50;;;;;;;20.33;18.63;;;16.00;47.00;;;;;;10389544;28;20221;-73
2023/10/20 08:51:56;;;;;;;19.90;18.00;;;16.10;47.10;;;;;;10380028;28;20881;-73
2023/10/20 08:56:59;;;;;;;20.40;18.50;;;16.10;47.60;;;;;;10388874;28;20711;-73
2023/10/20 09:02:03;;;;;;;19.63;17.80;;;16.20;47.20;;;;;;10395847;28;20232;-74
2023/10/20 09:07:14;;;;;;;19.77;17.87;;;16.30;47.30;;;;;;10391087;28;20222;-74
2023/10/20 09:12:18;;;;;;;19.63;17.53;;;16.40;47.20;;;;;;10393120;28;20234;-73
2023/10/20 09:17:23;;;;;;;20.37;18.33;;;16.50;46.90;;;;;;10392258;28;20265;-73
2023/10/20 09:22:31;;;;;;;20.20;18.23;;;16.60;47.00;;;;;;10394368;28;20584;-73
2023/10/20 09:27:34;;;;;;;19.00;17.20;;;16.70;46.90;;;;;;10390639;28;20689;-72
2023/10/20 09:32:37;;;;;;;19.37;17.67;;;16.80;47.00;;;;;;10390560;28;20232;-73
2023/10/20 09:37:43;;;;;;;17.97;16.33;;;16.90;47.00;;;;;;10385333;28;20237;-72
2023/10/20 09:43:02;;;;;;;16.67;15.17;;;17.00;46.90;;;;;;10391933;28;20229;-73
2023/10/20 09:48:27;;;;;;;17.87;16.37;;;17.10;46.80;;;;;;10390985;28;20312;-73
2023/10/20 09:53:32;;;;;;;16.77;15.27;;;17.30;46.60;;;;;;10387598;28;20264;-73
2023/10/20 09:58:38;;;;;;;15.60;14.20;;;17.50;46.50;;;;;;10384626;28;20229;-73
2023/10/20 10:03:41;;;;;;;16.03;14.63;;;17.60;46.60;;;;;;10390825;28;20312;-72
2023/10/20 10:08:46;;;;;;;16.97;15.47;;;17.70;46.70;;;;;;10388627;28;20230;-73
2023/10/20 10:13:55;;;;;;;14.10;12.90;;;17.90;46.90;;;;;;10391948;28;20232;-73
2023/10/20 10:19:07;;;;;;;15.90;14.50;;;17.90;46.40;;;;;;10391242;28;20313;-73
2023/10/20 10:24:17;;;;;;;16.23;14.73;;;18.00;46.40;;;;;;10391583;28;20225;-73
2023/10/20 10:29:49;;;;;;;14.97;13.67;;;18.10;46.20;;;;;;10390232;28;20233;-73
2023/10/20 10:34:53;;;;;;;15.97;14.40;;;18.20;46.70;;;;;;10391110;28;20260;-73
2023/10/20 10:40:10;;;;;;;18.20;16.50;;;18.30;46.30;;;;;;10379408;28;20831;-73
2023/10/20 10:45:21;;;;;;;15.30;13.97;;;18.40;45.60;;;;;;10383002;28;20229;-74
2023/10/20 10:50:25;;;;;;;16.93;15.53;;;18.50;46.10;;;;;;10381475;28;20239;-76
2023/10/20 10:55:30;;;;;;;15.90;14.50;;;18.70;46.40;;;;;;10375952;28;20865;-76
2023/10/20 11:00:34;;;;;;;17.37;15.77;;;18.80;46.20;;;;;;10381692;28;20879;-76
2023/10/20 11:05:39;;;;;;;17.40;15.80;;;18.90;46.40;;;;;;10384400;28;20236;-73
2023/10/20 11:10:45;;;;;;;17.13;15.73;;;19.00;46.00;;;;;;10379812;28;20621;-73
2023/10/20 11:15:50;;;;;;;17.93;16.30;;;19.00;46.00;;;;;;10380307;28;20225;-75
2023/10/20 11:20:55;;;;;;;16.90;15.30;;;19.00;45.90;;;;;;10381213;28;21003;-75
2023/10/20 11:26:01;;;;;;;15.80;14.50;;;19.00;46.10;;;;;;10378573;28;20226;-75
2023/10/20 11:31:06;;;;;;;17.40;16.00;;;19.10;46.00;;;;;;10380160;28;20685;-75
2023/10/20 11:36:09;;;;;;;17.47;15.87;;;19.20;46.10;;;;;;10377830;28;20229;-75
2023/10/20 11:41:14;;;;;;;15.73;14.40;;;19.20;45.90;;;;;;10374666;28;20889;-75
2023/10/20 11:46:17;;;;;;;15.80;14.47;;;19.30;45.80;;;;;;10382413;28;20286;-76
2023/10/20 11:51:21;;;;;;;16.97;15.43;;;19.40;46.20;;;;;;10375682;28;20953;-74
2023/10/20 11:56:26;;;;;;;16.57;15.17;;;19.50;46.10;;;;;;10376837;28;20221;-72
2023/10/20 12:01:33;;;;;;;17.07;15.57;;;19.50;46.00;;;;;;10381437;28;20232;-72
2023/10/20 12:06:37;;;;;;;16.03;14.73;;;19.60;46.20;;;;;;10378018;28;20240;-72
2023/10/20 12:11:42;;;;;;;15.93;14.53;;;19.70;46.50;;;;;;10377822;28;20225;-72
2023/10/20 12:16:46;;;;;;;15.03;13.73;;;19.80;46.00;;;;;;10377560;28;20226;-71
2023/10/20 12:21:49;;;;;;;14.93;13.63;;;19.90;46.10;;;;;;10380876;28;20284;-72
2023/10/20 12:26:55;;;;;;;15.63;14.23;;;20.00;46.00;;;;;;10380255;28;20229;-71
2023/10/20 12:31:58;;;;;;;14.23;13.03;;;20.10;45.40;;;;;;10376044;28;20320;-71
2023/10/20 12:37:03;;;;;;;14.33;13.07;;;20.20;45.60;;;;;;10364350;28;20301;-73
2023/10/20 12:42:08;;;;;;;15.30;13.80;;;20.20;45.40;;;;;;10377552;28;20272;-73
2023/10/20 12:47:11;;;;;;;13.70;12.53;;;20.30;45.10;;;;;;10387613;28;20225;-72
2023/10/20 12:52:14;;;;;;;13.37;12.27;;;20.40;45.30;;;;;;10387714;28;20320;-72
2023/10/20 12:57:19;;;;;;;12.80;11.70;;;20.40;45.10;;;;;;10381603;28;20691;-72
2023/10/20 13:02:22;;;;;;;11.63;10.63;;;20.40;44.90;;;;;;10390836;28;20242;-72
2023/10/20 13:07:25;;;;;;;11.63;10.73;;;20.50;45.20;;;;;;10389958;28;20735;-72
2023/10/20 13:12:30;;;;;;;11.60;10.70;;;20.50;44.80;;;;;;10393980;28;20241;-72
2023/10/20 13:17:33;;;;;;;10.77;9.87;;;20.60;44.50;;;;;;10386540;28;20258;-74
2023/10/20 13:22:36;;;;;;;11.40;10.40;;;20.70;44.90;;;;;;10388233;28;20240;-73
2023/10/20 13:27:41;;;;;;;10.80;9.80;;;20.70;44.50;;;;;;10387404;28;21095;-74
2023/10/20 13:32:44;;;;;;;9.47;8.57;;;20.80;44.50;;;;;;10389419;28;20236;-73
2023/10/20 13:37:47;;;;;;;9.17;8.40;;;20.90;44.60;;;;;;10391330;28;20226;-73
2023/10/20 13:42:52;;;;;;;9.70;8.90;;;21.10;44.60;;;;;;10387184;28;20240;-73
2023/10/20 13:47:55;;;;;;;9.23;8.47;;;21.00;44.10;;;;;;10389152;28;20241;-72
2023/10/20 13:52:58;;;;;;;8.30;7.70;;;21.10;44.50;;;;;;10390543;28;20246;-72
2023/10/20 13:58:04;;;;;;;8.07;7.27;;;21.10;43.90;;;;;;10384448;28;20218;-72
2023/10/20 14:03:08;;;;;;;7.63;6.83;;;21.10;43.40;;;;;;10379883;28;20228;-73
2023/10/20 14:08:11;;;;;;;6.90;6.07;;;21.10;43.60;;;;;;10384198;28;20225;-73
2023/10/20 14:13:16;;;;;;;14.20;13.10;;;21.10;43.40;;;;;;10387008;28;20271;-73
2023/10/20 14:18:21;;;;;;;10.80;9.90;;;21.10;43.20;;;;;;10384320;28;20253;-74
2023/10/20 14:23:27;;;;;;;7.40;6.80;;;21.10;43.40;;;;;;10388724;28;20580;-72
2023/10/20 14:28:32;;;;;;;7.30;6.60;;;21.10;43.40;;;;;;10396004;28;20284;-73
2023/10/20 14:33:36;;;;;;;6.10;5.67;;;21.10;43.00;;;;;;10392827;28;20247;-72
2023/10/20 14:38:39;;;;;;;6.10;5.60;;;21.10;43.20;;;;;;10382862;28;20703;-71
2023/10/20 14:43:44;;;;;;;6.00;5.50;;;21.10;43.30;;;;;;10384484;28;20272;-70
2023/10/20 14:48:47;;;;;;;5.70;5.27;;;21.10;43.00;;;;;;10377460;28;20225;-70
2023/10/20 14:53:50;;;;;;;5.77;5.27;;;21.10;43.40;;;;;;10374254;28;20308;-71
2023/10/20 14:58:56;;;;;;;6.43;5.80;;;21.10;43.40;;;;;;10384737;28;20760;-71
2023/10/20 15:04:03;;;;;;;7.27;6.57;;;21.10;42.90;;;;;;10381662;28;20240;-72
2023/10/20 15:09:24;;;;;;;6.07;5.57;;;21.10;43.20;;;;;;10378052;28;20229;-71
2023/10/20 15:14:29;;;;;;;6.07;5.50;;;21.10;43.20;;;;;;10381937;28;20244;-71
2023/10/20 15:19:33;;;;;;;5.00;4.70;;;21.10;43.10;;;;;;10383268;28;20339;-71
2023/10/20 15:24:36;;;;;;;5.73;5.17;;;21.20;43.20;;;;;;10381698;28;20312;-72
2023/10/20 15:29:41;;;;;;;10.97;7.03;;;21.20;43.40;;;;;;10386776;28;20237;-71
2023/10/20 15:34:44;;;;;;;6.47;5.27;;;21.20;43.30;;;;;;10382617;28;20325;-70
2023/10/20 15:39:47;;;;;;;6.17;5.40;;;21.30;44.30;;;;;;10379359;28;20233;-72
2023/10/20 15:45:05;;;;;;;5.90;5.40;;;21.30;43.60;;;;;;10382223;28;20306;-71
2023/10/20 15:50:12;;;;;;;6.17;5.57;;;21.30;43.10;;;;;;10380898;28;20225;-70
2023/10/20 15:55:15;;;;;;;8.47;7.20;;;21.20;42.70;;;;;;10377571;28;23416;-70
2023/10/20 16:00:20;;;;;;;4.43;4.03;;;21.10;42.70;;;;;;10385778;28;21037;-69
2023/10/20 16:05:23;;;;;;;2.30;2.10;;;21.00;42.20;;;;;;10387732;28;20230;-70
2023/10/20 16:10:26;;;;;;;1.37;1.30;;;20.90;42.40;;;;;;10389000;28;20802;-70
2023/10/20 16:15:31;;;;;;;1.07;1.03;;;20.80;42.30;;;;;;10392164;28;20308;-70
2023/10/20 16:20:34;;;;;;;1.30;1.10;;;20.80;42.00;;;;;;10393283;28;20233;-69
2023/10/20 16:25:37;;;;;;;1.40;1.30;;;20.70;42.20;;;;;;10400470;28;20272;-74
2023/10/20 16:30:42;;;;;;;1.13;1.10;;;20.70;42.10;;;;;;10397338;28;20252;-74
2023/10/20 16:35:46;;;;;;;1.33;1.23;;;20.70;41.70;;;;;;10394246;28;20324;-74
2023/10/20 16:40:51;;;;;;;2.37;2.20;;;20.60;41.90;;;;;;10398367;28;20229;-70
2023/10/20 16:45:56;;;;;;;3.67;3.27;;;20.60;41.90;;;;;;10398758;28;20342;-70
2023/10/20 16:51:00;;;;;;;2.33;2.23;;;20.60;41.50;;;;;;10389769;28;20376;-70
2023/10/20 16:56:04;;;;;;;1.57;1.47;;;20.60;41.60;;;;;;10387825;28;20236;-71
2023/10/20 17:01:09;;;;;;;1.70;1.60;;;20.50;41.80;;;;;;10382328;28;20234;-71
2023/10/20 17:06:13;;;;;;;1.40;1.30;;;20.40;41.40;;;;;;10390150;28;20224;-71
2023/10/20 17:11:16;;;;;;;11.50;10.60;;;20.40;41.60;;;;;;10389628;28;20990;-71
2023/10/20 17:16:21;;;;;;;3.50;3.20;;;20.30;41.60;;;;;;10385451;28;20221;-71
2023/10/20 17:21:24;;;;;;;1.90;1.70;;;20.30;41.00;;;;;;10388988;28;20236;-70
2023/10/20 17:26:27;;;;;;;1.80;1.70;;;20.20;41.40;;;;;;10386416;28;20468;-71
2023/10/20 17:31:32;;;;;;;1.10;1.10;;;20.20;41.20;;;;;;10387200;28;20338;-71
2023/10/20 17:36:36;;;;;;;1.60;1.00;;;20.20;40.90;;;;;;10387243;28;20265;-70
2023/10/20 17:41:39;;;;;;;1.37;1.30;;;20.10;41.20;;;;;;10388198;28;20221;-71
2023/10/20 17:46:44;;;;;;;4.47;3.77;;;20.10;41.30;;;;;;10388341;28;20287;-71
2023/10/20 17:51:47;;;;;;;13.23;12.00;;;20.00;41.00;;;;;;10384822;28;20222;-70
2023/10/20 17:56:50;;;;;;;14.20;12.80;;;20.00;41.40;;;;;;10387227;28;20324;-75
2023/10/20 18:01:55;;;;;;;14.57;13.10;;;20.00;41.30;;;;;;10385453;28;20391;-70
2023/10/20 18:06:58;;;;;;;5.60;5.10;;;20.00;40.90;;;;;;10383841;28;20253;-70
2023/10/20 18:12:02;;;;;;;3.23;2.97;;;19.90;41.10;;;;;;10381734;28;20239;-71
2023/10/20 18:17:07;;;;;;;3.00;2.70;;;19.80;41.00;;;;;;10383700;28;20328;-70
2023/10/20 18:22:11;;;;;;;2.10;2.00;;;19.80;40.80;;;;;;10383649;28;20723;-70
2023/10/20 18:27:14;;;;;;;1.90;1.40;;;19.70;40.80;;;;;;10385605;28;20271;-70
2023/10/20 18:32:20;;;;;;;1.33;1.23;;;19.60;40.70;;;;;;10382833;28;20889;-72
2023/10/20 18:37:24;;;;;;;1.60;1.50;;;19.60;40.80;;;;;;10380407;28;20229;-73
2023/10/20 18:42:27;;;;;;;1.30;1.20;;;19.50;41.00;;;;;;10379840;28;20229;-73
2023/10/20 18:47:32;;;;;;;1.53;1.00;;;19.50;41.00;;;;;;10377635;28;20251;-73
2023/10/20 18:52:36;;;;;;;1.67;1.57;;;19.30;41.40;;;;;;10382160;28;20229;-74
2023/10/20 18:57:39;;;;;;;3.07;2.10;;;19.30;41.90;;;;;;10384595;28;20249;-73
2023/10/20 19:02:46;;;;;;;3.40;2.80;;;19.30;42.10;;;;;;10385072;28;20320;-73
2023/10/20 19:07:49;;;;;;;3.50;3.20;;;19.30;41.90;;;;;;10384685;28;20283;-73
2023/10/20 19:12:52;;;;;;;3.50;3.03;;;19.30;41.80;;;;;;10373422;28;20264;-73
2023/10/20 19:17:57;;;;;;;3.57;2.00;;;19.20;42.00;;;;;;10377324;28;20233;-73
2023/10/20 19:23:02;;;;;;;3.50;2.90;;;19.00;42.10;;;;;;10371159;28;20677;-74
2023/10/20 19:28:06;;;;;;;1.97;1.60;;;18.90;42.10;;;;;;10369775;28;20252;-73
2023/10/20 19:33:10;;;;;;;1.40;1.30;;;18.80;42.00;;;;;;10373433;28;20229;-74
2023/10/20 19:38:13;;;;;;;1.20;1.10;;;18.70;42.30;;;;;;10372471;28;20229;-74
2023/10/20 19:43:17;;;;;;;1.17;1.07;;;18.60;42.40;;;;;;10372138;28;20256;-73
2023/10/20 19:48:22;;;;;;;1.20;1.10;;;18.50;43.40;;;;;;10372162;28;20229;-74
2023/10/20 19:53:25;;;;;;;1.50;1.40;;;18.40;42.80;;;;;;10367686;28;20225;-74
2023/10/20 19:58:28;;;;;;;3.00;1.53;;;18.30;42.70;;;;;;10378459;28;20237;-74
2023/10/20 20:03:33;;;;;;;1.43;1.33;;;18.10;42.80;;;;;;10386753;28;20252;-74
2023/10/20 20:08:37;;;;;;;1.43;1.40;;;18.00;43.50;;;;;;10385829;28;20353;-70
2023/10/20 20:13:40;;;;;;;1.40;1.30;;;17.80;43.30;;;;;;10384705;28;20253;-71
2023/10/20 20:18:45;;;;;;;1.30;1.20;;;17.70;43.60;;;;;;10382177;28;21165;-71
2023/10/20 20:23:48;;;;;;;1.13;1.10;;;17.70;44.30;;;;;;10387202;28;20235;-74
2023/10/20 20:28:52;;;;;;;1.40;1.30;;;17.60;43.90;;;;;;10389352;28;20229;-74
2023/10/20 20:33:57;;;;;;;1.20;1.10;;;17.60;44.10;;;;;;10385009;28;20233;-73
2023/10/20 20:39:04;;;;;;;0.90;0.90;;;17.60;44.60;;;;;;10389509;28;20218;-71
2023/10/20 20:44:07;;;;;;;1.97;1.80;;;17.60;44.40;;;;;;10382765;28;20222;-74
2023/10/20 20:49:12;;;;;;;2.37;2.10;;;17.60;44.30;;;;;;10384967;28;20225;-74
2023/10/20 20:54:15;;;;;;;2.60;2.40;;;17.60;44.60;;;;;;10387306;28;20229;-75
2023/10/20 20:59:18;;;;;;;1.53;1.43;;;17.60;44.30;;;;;;10386759;28;20230;-74
2023/10/20 21:04:23;;;;;;;1.53;1.10;;;17.60;44.30;;;;;;10386629;28;20245;-74
2023/10/20 21:09:27;;;;;;;0.87;0.87;;;17.50;44.50;;;;;;10395411;28;20229;-75
2023/10/20 21:14:30;;;;;;;1.10;1.00;;;17.50;44.30;;;;;;10393356;28;20229;-76
2023/10/20 21:19:35;;;;;;;1.30;1.10;;;17.60;44.40;;;;;;10396649;28;20253;-76
2023/10/20 21:24:38;;;;;;;2.20;1.50;;;17.60;44.80;;;;;;10396277;28;20226;-75
2023/10/20 21:29:41;;;;;;;1.73;1.50;;;17.70;44.30;;;;;;10398184;28;20226;-75
2023/10/20 21:34:46;;;;;;;1.50;1.40;;;17.60;44.10;;;;;;10393784;28;20720;-75
2023/10/20 21:39:49;;;;;;;1.60;1.50;;;17.80;44.30;;;;;;10388232;28;20719;-76
2023/10/20 21:44:53;;;;;;;2.30;2.10;;;17.70;43.90;;;;;;10389490;28;20257;-75
2023/10/20 21:49:57;;;;;;;1.60;1.47;;;17.70;44.00;;;;;;10390406;28;20258;-75
2023/10/20 21:55:01;;;;;;;2.17;1.97;;;17.70;44.20;;;;;;10395704;28;20257;-75
2023/10/20 22:00:08;;;;;;;1.87;1.70;;;17.70;43.90;;;;;;10393617;28;20265;-75
2023/10/20 22:05:13;;;;;;;2.40;2.20;;;17.70;43.90;;;;;;10394310;28;20221;-76
2023/10/20 22:10:16;;;;;;;2.30;2.03;;;17.70;43.80;;;;;;10393033;28;20229;-75
2023/10/20 22:15:19;;;;;;;4.03;2.83;;;17.70;43.80;;;;;;10395340;28;20646;-73
2023/10/20 22:20:24;;;;;;;13.67;6.50;;;17.60;43.60;;;;;;10394623;28;20237;-73
2023/10/20 22:25:27;;;;;;;4.77;2.40;;;17.60;43.60;;;;;;10389132;28;20230;-73
2023/10/20 22:30:30;;;;;;;1.77;1.60;;;17.60;43.50;;;;;;10392551;28;20229;-72
2023/10/20 22:35:35;;;;;;;1.60;1.50;;;17.50;43.70;;;;;;10391346;28;20229;-72
2023/10/20 22:40:38;;;;;;;1.33;1.23;;;17.50;44.00;;;;;;10395165;28;20651;-72
2023/10/20 22:45:42;;;;;;;1.43;1.20;;;17.40;43.70;;;;;;10392826;28;20745;-72
2023/10/20 22:50:46;;;;;;;1.20;1.10;;;17.40;43.60;;;;;;10390244;28;20236;-72
2023/10/20 22:55:49;;;;;;;0.90;0.90;;;17.30;44.10;;;;;;10393419;28;20236;-72
2023/10/20 23:00:52;;;;;;;1.20;1.10;;;17.30;44.00;;;;;;10390283;28;20275;-71
2023/10/20 23:05:57;;;;;;;1.23;1.13;;;17.30;43.80;;;;;;10393899;28;20916;-72
2023/10/20 23:11:02;;;;;;;0.97;0.97;;;17.30;43.90;;;;;;10387854;28;20229;-71
2023/10/20 23:16:05;;;;;;;1.20;1.20;;;17.20;43.70;;;;;;10392539;28;20233;-72
2023/10/20 23:21:10;;;;;;;1.60;1.50;;;17.20;43.60;;;;;;10393701;28;20657;-71
2023/10/20 23:26:13;;;;;;;1.97;1.70;;;17.20;43.60;;;;;;10392292;28;20317;-71
2023/10/20 23:31:17;;;;;;;1.40;1.30;;;17.10;43.30;;;;;;10390921;28;20226;-71
2023/10/20 23:36:21;;;;;;;1.80;1.70;;;17.10;43.50;;;;;;10391812;28;20221;-71
2023/10/20 23:41:24;;;;;;;2.20;2.00;;;17.00;43.50;;;;;;10393801;28;20247;-75
2023/10/20 23:46:28;;;;;;;1.70;1.60;;;17.00;43.30;;;;;;10389047;28;20245;-75
2023/10/20 23:51:33;;;;;;;2.00;1.90;;;16.90;43.50;;;;;;10391108;28;20245;-76
2023/10/20 23:56:36;;;;;;;2.10;2.00;;;16.90;43.60;;;;;;10392114;28;20341;-75
